createdAt,value
2023-08-16T00:01:50.958Z,20.90
2023-08-16T00:04:18.304Z,20.90
2023-08-16T00:06:47.018Z,20.90
2023-08-16T00:09:14.586Z,21.00
2023-08-16T00:11:41.601Z,20.90
2023-08-16T00:14:08.909Z,20.90
2023-08-16T00:16:35.834Z,20.90
2023-08-16T00:19:03.168Z,20.90
2023-08-16T00:21:30.056Z,20.90
2023-08-16T00:23:58.886Z,20.90
2023-08-16T00:26:25.768Z,20.90
2023-08-16T00:28:53.286Z,20.90
2023-08-16T00:31:20.474Z,20.80
2023-08-16T00:33:47.769Z,20.80
2023-08-16T00:36:14.881Z,20.80
2023-08-16T00:38:45.175Z,20.70
2023-08-16T00:41:14.093Z,20.70
2023-08-16T00:43:41.922Z,20.80
2023-08-16T00:46:11.457Z,20.80
2023-08-16T00:48:40.654Z,20.70
2023-08-16T00:51:08.489Z,20.80
2023-08-16T00:53:38.044Z,20.80
2023-08-16T00:56:06.055Z,20.70
2023-08-16T00:58:34.819Z,20.70
2023-08-16T01:01:01.798Z,20.70
2023-08-16T01:03:28.933Z,20.70
2023-08-16T01:05:55.906Z,20.70
2023-08-16T01:08:23.163Z,20.70
2023-08-16T01:10:55.734Z,20.70
2023-08-16T01:13:27.593Z,20.60
2023-08-16T01:15:58.265Z,20.60
2023-08-16T01:18:26.956Z,20.60
2023-08-16T01:20:54.775Z,20.60
2023-08-16T01:23:32.040Z,20.60
2023-08-16T01:26:07.275Z,20.60
2023-08-16T01:28:37.559Z,20.60
2023-08-16T01:31:05.346Z,20.60
2023-08-16T01:33:32.934Z,20.60
2023-08-16T01:35:59.939Z,20.50
2023-08-16T01:38:27.407Z,20.60
2023-08-16T01:40:59.131Z,20.60
2023-08-16T01:43:27.133Z,20.60
2023-08-16T01:45:56.406Z,20.50
2023-08-16T01:48:25.258Z,20.50
2023-08-16T01:50:53.053Z,20.50
2023-08-16T01:53:20.770Z,20.40
2023-08-16T01:55:48.392Z,20.40
2023-08-16T01:58:15.491Z,20.40
2023-08-16T02:00:42.896Z,20.40
2023-08-16T02:03:11.300Z,20.40
2023-08-16T02:05:38.770Z,20.30
2023-08-16T02:08:05.935Z,20.30
2023-08-16T02:10:33.148Z,20.30
2023-08-16T02:13:00.101Z,20.30
2023-08-16T02:15:27.512Z,20.30
2023-08-16T02:17:54.477Z,20.20
2023-08-16T02:20:23.264Z,20.20
2023-08-16T02:22:50.277Z,20.10
2023-08-16T02:25:17.655Z,20.10
2023-08-16T02:27:45.336Z,20.10
2023-08-16T02:30:12.781Z,20.00
2023-08-16T02:32:39.873Z,20.00
2023-08-16T02:35:07.471Z,20.00
2023-08-16T02:37:35.827Z,19.90
2023-08-16T02:40:03.478Z,20.00
2023-08-16T02:42:30.369Z,19.90
2023-08-16T02:44:57.779Z,19.90
2023-08-16T02:47:25.029Z,19.90
2023-08-16T02:49:52.499Z,19.90
2023-08-16T02:52:19.498Z,19.90
2023-08-16T02:54:48.134Z,19.90
2023-08-16T02:57:17.333Z,19.90
2023-08-16T02:59:48.682Z,19.90
2023-08-16T03:02:16.110Z,19.80
2023-08-16T03:04:43.273Z,19.80
2023-08-16T03:07:11.808Z,19.70
2023-08-16T03:09:39.461Z,19.70
2023-08-16T03:12:08.560Z,19.60
2023-08-16T03:14:35.820Z,19.60
2023-08-16T03:17:03.266Z,19.70
2023-08-16T03:19:30.766Z,19.70
2023-08-16T03:21:57.896Z,19.60
2023-08-16T03:24:25.186Z,19.70
2023-08-16T03:26:52.100Z,19.70
2023-08-16T03:29:20.902Z,19.70
2023-08-16T03:31:48.246Z,19.70
2023-08-16T03:34:15.543Z,19.80
2023-08-16T03:36:42.604Z,19.70
2023-08-16T03:39:09.986Z,19.70
2023-08-16T03:41:38.310Z,19.70
2023-08-16T03:44:07.632Z,19.80
2023-08-16T03:46:36.186Z,19.70
2023-08-16T03:49:04.084Z,19.70
2023-08-16T03:51:30.983Z,19.70
2023-08-16T03:53:58.310Z,19.60
2023-08-16T03:56:25.243Z,19.60
2023-08-16T03:58:52.236Z,19.50
2023-08-16T04:01:19.452Z,19.60
2023-08-16T04:03:48.228Z,19.60
2023-08-16T04:06:15.561Z,19.60
2023-08-16T04:08:42.950Z,19.60
2023-08-16T04:11:10.147Z,19.60
2023-08-16T04:13:37.275Z,19.60
2023-08-16T04:16:04.979Z,19.60
2023-08-16T04:18:32.084Z,19.50
2023-08-16T04:21:00.943Z,19.50
2023-08-16T04:23:27.821Z,19.50
2023-08-16T04:25:55.093Z,19.50
2023-08-16T04:28:21.952Z,19.50
2023-08-16T04:30:49.199Z,19.40
2023-08-16T04:33:16.237Z,19.40
2023-08-16T04:35:43.473Z,19.50
2023-08-16T04:38:11.996Z,19.50
2023-08-16T04:40:39.260Z,19.50
2023-08-16T04:43:06.163Z,19.60
2023-08-16T04:45:33.380Z,19.50
2023-08-16T04:48:00.351Z,19.50
2023-08-16T04:50:28.095Z,19.50
2023-08-16T04:52:55.134Z,19.50
2023-08-16T04:55:23.748Z,19.50
2023-08-16T04:57:51.307Z,19.50
2023-08-16T05:00:20.803Z,19.60
2023-08-16T05:02:47.985Z,19.70
2023-08-16T05:05:15.487Z,19.80
2023-08-16T05:07:42.376Z,19.70
2023-08-16T05:10:10.008Z,19.70
2023-08-16T05:12:38.291Z,19.70
2023-08-16T05:15:06.451Z,19.70
2023-08-16T05:17:33.418Z,19.70
2023-08-16T05:20:01.142Z,19.80
2023-08-16T05:22:28.292Z,19.70
2023-08-16T05:24:55.232Z,19.70
2023-08-16T05:27:22.631Z,19.60
2023-08-16T05:29:51.044Z,19.70
2023-08-16T05:32:18.429Z,19.90
2023-08-16T05:34:45.326Z,19.90
2023-08-16T05:37:12.543Z,19.90
2023-08-16T05:39:42.992Z,19.80
2023-08-16T05:42:11.260Z,19.80
2023-08-16T05:44:38.061Z,19.70
2023-08-16T05:47:06.843Z,19.70
2023-08-16T05:49:33.782Z,19.70
2023-08-16T05:52:00.981Z,19.60
2023-08-16T05:54:28.130Z,19.60
2023-08-16T05:56:55.361Z,19.60
2023-08-16T05:59:22.317Z,19.70
2023-08-16T06:01:49.671Z,19.80
2023-08-16T06:04:18.145Z,19.80
2023-08-16T06:06:45.366Z,19.80
2023-08-16T06:09:12.241Z,19.80
2023-08-16T06:11:39.423Z,19.80
2023-08-16T06:14:06.411Z,19.80
2023-08-16T06:16:33.700Z,19.80
2023-08-16T06:19:00.655Z,19.90
2023-08-16T06:21:29.177Z,19.90
2023-08-16T06:23:57.234Z,20.00
2023-08-16T06:26:24.577Z,20.10
2023-08-16T06:28:52.685Z,20.10
2023-08-16T06:31:19.695Z,20.20
2023-08-16T06:33:46.878Z,20.20
2023-08-16T06:36:14.621Z,20.30
2023-08-16T06:38:44.742Z,20.30
2023-08-16T06:41:12.325Z,20.30
2023-08-16T06:43:39.157Z,20.40
2023-08-16T06:46:06.434Z,20.40
2023-08-16T06:48:33.553Z,20.40
2023-08-16T06:51:00.793Z,20.40
2023-08-16T06:53:28.512Z,20.50
2023-08-16T06:55:56.976Z,20.50
2023-08-16T06:58:24.142Z,20.50
2023-08-16T07:00:51.178Z,20.60
2023-08-16T07:03:18.856Z,20.60
2023-08-16T07:05:46.846Z,20.60
2023-08-16T07:08:14.508Z,20.70
2023-08-16T07:10:45.176Z,20.70
2023-08-16T07:13:13.816Z,20.80
2023-08-16T07:15:40.673Z,20.90
2023-08-16T07:18:07.932Z,21.00
2023-08-16T07:20:34.928Z,21.00
2023-08-16T07:23:03.042Z,21.10
2023-08-16T07:25:30.204Z,21.20
2023-08-16T07:27:57.562Z,21.30
2023-08-16T07:30:25.920Z,21.20
2023-08-16T07:32:53.150Z,21.30
2023-08-16T07:35:20.171Z,21.20
2023-08-16T07:37:48.474Z,21.20
2023-08-16T07:40:15.864Z,21.10
2023-08-16T07:42:43.183Z,21.10
2023-08-16T07:45:10.951Z,21.20
2023-08-16T07:47:39.498Z,21.10
2023-08-16T07:50:07.262Z,21.00
2023-08-16T07:52:34.495Z,21.00
2023-08-16T07:55:01.477Z,20.90
2023-08-16T07:57:28.470Z,20.90
2023-08-16T07:59:56.146Z,20.90
2023-08-16T08:02:23.737Z,21.00
2023-08-16T08:04:52.650Z,21.10
2023-08-16T08:07:19.663Z,21.10
2023-08-16T08:09:46.939Z,21.30
2023-08-16T08:12:13.832Z,21.30
2023-08-16T08:14:40.852Z,21.40
2023-08-16T08:17:07.717Z,21.50
2023-08-16T08:19:34.962Z,21.60
2023-08-16T08:22:04.288Z,21.60
2023-08-16T08:24:31.506Z,21.70
2023-08-16T08:26:58.437Z,21.80
2023-08-16T08:29:29.500Z,21.90
2023-08-16T08:31:56.861Z,21.90
2023-08-16T08:34:25.574Z,21.90
2023-08-16T08:36:52.551Z,21.80
2023-08-16T08:39:21.742Z,21.80
2023-08-16T08:41:49.317Z,22.00
2023-08-16T08:44:17.542Z,22.00
2023-08-16T08:46:47.622Z,22.10
2023-08-16T08:49:16.576Z,22.20
2023-08-16T08:51:44.135Z,22.20
2023-08-16T08:54:12.557Z,22.30
2023-08-16T08:56:41.235Z,22.30
2023-08-16T08:59:14.850Z,22.10
2023-08-16T09:01:45.599Z,22.10
2023-08-16T09:04:14.735Z,22.10
2023-08-16T09:06:42.561Z,22.10
2023-08-16T09:09:09.939Z,22.00
2023-08-16T09:11:37.284Z,22.00
2023-08-16T09:14:06.701Z,22.10
2023-08-16T09:16:33.907Z,22.30
2023-08-16T09:19:00.787Z,22.30
2023-08-16T09:21:30.378Z,22.30
2023-08-16T09:23:58.409Z,22.30
2023-08-16T09:26:27.670Z,22.40
2023-08-16T09:28:57.728Z,22.50
2023-08-16T09:31:28.293Z,22.50
2023-08-16T09:34:02.324Z,22.60
2023-08-16T09:36:30.700Z,22.80
2023-08-16T09:39:01.133Z,22.90
2023-08-16T09:41:29.077Z,23.00
2023-08-16T09:44:03.978Z,23.10
2023-08-16T09:46:33.668Z,23.10
2023-08-16T09:54:10.245Z,23.00
2023-08-16T09:56:38.793Z,22.90
2023-08-16T09:59:36.779Z,22.90
2023-08-16T10:02:13.565Z,22.80
2023-08-16T10:07:13.585Z,22.80
2023-08-16T10:09:42.872Z,22.90
2023-08-16T10:12:11.430Z,23.00
2023-08-16T10:14:39.298Z,23.00
2023-08-16T10:17:10.879Z,23.00
2023-08-16T10:19:44.165Z,23.10
2023-08-16T10:22:27.658Z,23.10
2023-08-16T10:25:05.291Z,23.10
2023-08-16T10:27:33.392Z,23.20
2023-08-16T10:32:37.700Z,23.50
2023-08-16T10:35:06.811Z,23.60
2023-08-16T10:37:39.776Z,23.80
2023-08-16T10:40:17.325Z,24.00
2023-08-16T10:42:54.424Z,24.10
2023-08-16T10:45:26.436Z,24.20
2023-08-16T10:47:55.856Z,24.20
2023-08-16T10:50:33.057Z,24.20
2023-08-16T10:53:01.157Z,24.20
2023-08-16T10:55:28.271Z,24.40
2023-08-16T10:57:55.626Z,24.50
2023-08-16T11:00:31.881Z,24.50
2023-08-16T11:03:01.899Z,24.50
2023-08-16T11:05:32.010Z,24.40
2023-08-16T11:08:02.678Z,24.30
2023-08-16T11:10:34.154Z,24.30
2023-08-16T11:13:03.287Z,24.30
2023-08-16T11:15:30.271Z,24.30
2023-08-16T11:18:07.633Z,24.50
2023-08-16T11:20:37.546Z,24.70
2023-08-16T11:23:04.860Z,24.80
2023-08-16T11:25:34.351Z,24.90
2023-08-16T11:28:02.174Z,24.80
2023-08-16T11:30:29.215Z,24.90
2023-08-16T11:32:57.451Z,25.10
2023-08-16T11:35:27.185Z,25.30
2023-08-16T11:37:55.927Z,25.40
2023-08-16T11:40:25.817Z,25.50
2023-08-16T11:42:53.293Z,25.60
2023-08-16T11:45:21.739Z,25.70
2023-08-16T11:47:52.774Z,25.80
2023-08-16T11:50:20.165Z,26.00
2023-08-16T11:52:58.964Z,26.20
2023-08-16T11:55:26.898Z,26.30
2023-08-16T11:57:54.669Z,26.50
2023-08-16T12:00:28.244Z,26.60
2023-08-16T12:02:55.528Z,26.70
2023-08-16T12:05:22.539Z,26.80
2023-08-16T12:07:54.462Z,27.00
2023-08-16T12:10:30.270Z,27.00
2023-08-16T12:12:57.641Z,27.00
2023-08-16T12:15:26.505Z,27.00
2023-08-16T12:17:54.826Z,26.80
2023-08-16T12:20:22.159Z,26.60
2023-08-16T12:22:49.457Z,26.50
2023-08-16T12:25:16.709Z,26.30
2023-08-16T12:27:44.967Z,26.10
2023-08-16T12:30:12.578Z,26.00
2023-08-16T12:32:39.533Z,25.90
2023-08-16T12:35:07.206Z,26.00
2023-08-16T12:37:37.539Z,26.00
2023-08-16T12:40:12.704Z,26.10
2023-08-16T12:42:39.776Z,26.30
2023-08-16T12:45:10.101Z,26.50
2023-08-16T12:47:37.122Z,26.60
2023-08-16T12:50:06.126Z,26.60
2023-08-16T12:52:33.082Z,26.60
2023-08-16T12:55:00.509Z,26.60
2023-08-16T13:02:37.644Z,26.60
2023-08-16T13:07:49.887Z,26.90
2023-08-16T13:15:26.333Z,28.60
2023-08-16T13:20:44.435Z,28.50
2023-08-16T13:23:14.503Z,28.20
2023-08-16T13:28:19.207Z,27.30
2023-08-16T13:30:50.301Z,27.00
2023-08-16T13:33:31.335Z,26.70
2023-08-16T13:41:11.399Z,26.60
2023-08-16T13:43:43.600Z,27.20
2023-08-16T13:46:12.159Z,28.20
2023-08-16T13:48:41.829Z,28.80
2023-08-16T13:51:10.616Z,29.30
2023-08-16T13:53:37.573Z,29.80
2023-08-16T13:56:05.543Z,30.20
2023-08-16T13:58:34.050Z,30.30
2023-08-16T14:01:02.024Z,30.20
2023-08-16T14:03:29.172Z,29.70
2023-08-16T14:05:58.726Z,29.70
2023-08-16T14:08:26.792Z,29.90
2023-08-16T14:10:55.456Z,29.80
2023-08-16T14:13:22.540Z,29.40
2023-08-16T14:15:54.042Z,29.30
2023-08-16T14:18:21.608Z,29.40
2023-08-16T14:20:49.291Z,29.80
2023-08-16T14:23:18.107Z,30.30
2023-08-16T14:25:47.429Z,30.70
2023-08-16T14:28:14.754Z,31.00
2023-08-16T14:30:42.957Z,30.50
2023-08-16T14:33:11.839Z,30.30
2023-08-16T14:35:38.902Z,29.90
2023-08-16T14:38:06.579Z,29.90
2023-08-16T14:40:34.945Z,29.70
2023-08-16T14:43:02.881Z,29.40
2023-08-16T14:45:30.255Z,29.00
2023-08-16T14:47:57.683Z,28.50
2023-08-16T14:50:24.899Z,28.30
2023-08-16T14:52:52.328Z,28.20
2023-08-16T14:55:19.369Z,28.10
2023-08-16T14:57:48.924Z,27.90
2023-08-16T15:00:16.924Z,27.80
2023-08-16T15:02:44.510Z,27.60
2023-08-16T15:05:12.304Z,27.50
2023-08-16T15:07:40.497Z,27.50
2023-08-16T15:10:08.562Z,27.40
2023-08-16T15:12:36.008Z,27.70
2023-08-16T15:15:06.502Z,28.50
2023-08-16T15:17:40.108Z,29.00
2023-08-16T15:20:10.882Z,29.00
2023-08-16T15:22:38.304Z,28.60
2023-08-16T15:25:05.636Z,28.30
2023-08-16T15:27:32.567Z,27.90
2023-08-16T15:29:59.447Z,27.60
2023-08-16T15:32:28.234Z,27.50
2023-08-16T15:34:55.470Z,27.30
2023-08-16T15:37:22.369Z,27.20
2023-08-16T15:39:49.233Z,27.10
2023-08-16T15:42:16.488Z,27.10
2023-08-16T15:44:43.548Z,27.00
2023-08-16T15:47:12.684Z,27.00
2023-08-16T15:49:41.445Z,26.90
2023-08-16T15:52:14.915Z,26.80
2023-08-16T15:54:41.862Z,26.70
2023-08-16T15:57:08.728Z,26.50
2023-08-16T15:59:46.672Z,26.40
2023-08-16T16:02:15.962Z,26.20
2023-08-16T16:04:44.729Z,26.20
2023-08-16T16:07:11.807Z,26.20
2023-08-16T16:09:39.087Z,26.30
2023-08-16T16:12:06.461Z,26.30
2023-08-16T16:14:33.415Z,26.30
2023-08-16T16:17:22.720Z,26.20
2023-08-16T16:19:51.731Z,26.10
2023-08-16T16:22:19.012Z,26.10
2023-08-16T16:24:46.694Z,26.00
2023-08-16T16:27:13.840Z,26.00
2023-08-16T16:29:41.070Z,25.90
2023-08-16T16:32:08.045Z,25.80
2023-08-16T16:34:35.475Z,25.80
2023-08-16T16:37:03.827Z,25.70
2023-08-16T16:39:30.960Z,25.70
2023-08-16T16:42:00.677Z,25.70
2023-08-16T16:44:29.358Z,25.60
2023-08-16T16:46:56.462Z,25.60
2023-08-16T16:49:23.730Z,25.50
2023-08-16T16:51:52.196Z,25.50
2023-08-16T16:54:20.825Z,25.50
2023-08-16T16:56:47.796Z,25.40
2023-08-16T16:59:14.777Z,25.40
2023-08-16T17:01:41.741Z,25.50
2023-08-16T17:04:08.984Z,25.50
2023-08-16T17:06:35.986Z,25.50
2023-08-16T17:09:03.216Z,25.40
2023-08-16T17:11:31.525Z,25.30
2023-08-16T17:13:58.822Z,25.20
2023-08-16T17:16:25.855Z,25.10
2023-08-16T17:18:53.048Z,25.10
2023-08-16T17:21:19.976Z,25.00
2023-08-16T17:23:47.358Z,25.00
2023-08-16T17:26:14.749Z,24.90
2023-08-16T17:28:43.325Z,25.00
2023-08-16T17:31:11.914Z,24.90
2023-08-16T17:33:39.617Z,24.80
2023-08-16T17:36:07.158Z,24.80
2023-08-16T17:38:34.116Z,24.70
2023-08-16T17:41:01.998Z,24.60
2023-08-16T17:43:29.954Z,24.70
2023-08-16T17:45:58.499Z,24.50
2023-08-16T17:48:25.498Z,24.30
2023-08-16T17:50:53.097Z,23.90
2023-08-16T17:53:21.716Z,23.60
2023-08-16T17:55:49.384Z,23.40
2023-08-16T17:58:20.087Z,23.10
2023-08-16T18:00:48.078Z,23.00
2023-08-16T18:03:16.562Z,23.00
2023-08-16T18:05:46.923Z,23.00
2023-08-16T18:08:14.090Z,23.00
2023-08-16T18:10:41.230Z,23.00
2023-08-16T18:13:08.124Z,22.90
2023-08-16T18:15:35.412Z,22.90
2023-08-16T18:18:02.514Z,23.00
2023-08-16T18:20:31.138Z,23.00
2023-08-16T18:22:59.173Z,23.00
2023-08-16T18:25:26.690Z,23.00
2023-08-16T18:27:53.554Z,23.00
2023-08-16T18:30:21.046Z,23.00
2023-08-16T18:32:48.136Z,23.00
2023-08-16T18:35:15.722Z,22.90
2023-08-16T18:37:44.022Z,22.80
2023-08-16T18:40:11.705Z,22.70
2023-08-16T18:42:38.532Z,22.70
2023-08-16T18:45:07.136Z,22.60
2023-08-16T18:47:34.153Z,22.60
2023-08-16T18:50:01.393Z,22.60
2023-08-16T18:52:28.529Z,22.50
2023-08-16T18:54:57.075Z,22.50
2023-08-16T18:57:24.892Z,22.50
2023-08-16T18:59:53.254Z,22.40
2023-08-16T19:02:20.954Z,22.40
2023-08-16T19:04:48.038Z,22.40
2023-08-16T19:07:15.349Z,22.30
2023-08-16T19:09:42.280Z,22.40
2023-08-16T19:12:13.207Z,22.40
2023-08-16T19:14:40.124Z,22.30
2023-08-16T19:17:07.663Z,22.40
2023-08-16T19:19:34.945Z,22.30
2023-08-16T19:22:02.371Z,22.40
2023-08-16T19:24:32.682Z,22.30
2023-08-16T19:27:00.231Z,22.30
2023-08-16T19:29:30.765Z,22.30
2023-08-16T19:31:58.246Z,22.20
2023-08-16T19:34:25.108Z,22.20
2023-08-16T19:36:52.421Z,22.10
2023-08-16T19:39:19.282Z,22.20
2023-08-16T19:41:46.573Z,22.10
2023-08-16T19:44:13.480Z,22.10
2023-08-16T19:46:42.195Z,22.10
2023-08-16T19:49:09.170Z,22.10
2023-08-16T19:51:36.394Z,22.00
2023-08-16T19:54:03.544Z,22.00
2023-08-16T19:56:30.837Z,21.90
2023-08-16T19:59:00.011Z,21.80
2023-08-16T20:01:27.657Z,21.80
2023-08-16T20:03:56.181Z,21.80
2023-08-16T20:06:23.639Z,21.80
2023-08-16T20:08:50.599Z,21.80
2023-08-16T20:11:17.891Z,21.80
2023-08-16T20:13:44.770Z,21.80
2023-08-16T20:16:11.702Z,21.80
2023-08-16T20:18:38.809Z,21.80
2023-08-16T20:21:07.082Z,21.70
2023-08-16T20:23:34.656Z,21.70
2023-08-16T20:26:01.548Z,21.70
2023-08-16T20:28:29.157Z,21.60
2023-08-16T20:30:56.140Z,21.60
2023-08-16T20:33:23.477Z,21.60
2023-08-16T20:35:50.560Z,21.60
2023-08-16T20:38:18.854Z,21.60
2023-08-16T20:40:45.723Z,21.60
2023-08-16T20:43:12.975Z,21.50
2023-08-16T20:45:40.267Z,21.50
2023-08-16T20:48:07.870Z,21.50
2023-08-16T20:50:35.424Z,21.50
2023-08-16T20:53:02.657Z,21.50
2023-08-16T20:55:32.354Z,21.40
2023-08-16T20:57:59.538Z,21.40
2023-08-16T21:00:26.660Z,21.40
2023-08-16T21:02:53.931Z,21.30
2023-08-16T21:05:21.350Z,21.40
2023-08-16T21:07:48.891Z,21.40
2023-08-16T21:10:15.820Z,21.30
2023-08-16T21:12:44.538Z,21.40
2023-08-16T21:15:11.739Z,21.40
2023-08-16T21:17:39.098Z,21.40
2023-08-16T21:20:07.306Z,21.50
2023-08-16T21:22:34.392Z,21.50
2023-08-16T21:25:02.710Z,21.50
2023-08-16T21:27:30.094Z,21.50
2023-08-16T21:29:58.311Z,21.50
2023-08-16T21:32:25.332Z,21.40
2023-08-16T21:34:52.678Z,21.40
2023-08-16T21:37:19.871Z,21.30
2023-08-16T21:39:49.694Z,21.30
2023-08-16T21:42:16.676Z,21.30
2023-08-16T21:44:43.966Z,21.30
2023-08-16T21:47:12.174Z,21.20
2023-08-16T21:49:39.105Z,21.20
2023-08-16T21:52:06.243Z,21.20
2023-08-16T21:54:33.196Z,21.20
2023-08-16T21:57:00.164Z,21.20
2023-08-16T21:59:27.246Z,21.10
2023-08-16T22:01:54.168Z,21.10
2023-08-16T22:04:22.862Z,21.10
2023-08-16T22:06:49.765Z,21.10
2023-08-16T22:09:17.312Z,21.00
2023-08-16T22:11:44.770Z,21.00
2023-08-16T22:14:13.551Z,21.10
2023-08-16T22:16:40.627Z,21.10
2023-08-16T22:19:07.871Z,21.10
2023-08-16T22:21:36.147Z,21.20
2023-08-16T22:24:03.567Z,21.20
2023-08-16T22:26:30.434Z,21.10
2023-08-16T22:28:58.160Z,21.00
2023-08-16T22:31:26.243Z,21.10
2023-08-16T22:33:56.481Z,21.10
2023-08-16T22:36:24.075Z,21.10
2023-08-16T22:38:52.652Z,21.00
2023-08-16T22:41:19.612Z,21.00
2023-08-16T22:43:49.029Z,21.00
2023-08-16T22:46:16.822Z,21.00
2023-08-16T22:48:44.209Z,20.90
2023-08-16T22:51:11.208Z,21.00
2023-08-16T22:53:38.444Z,21.00
2023-08-16T22:56:06.896Z,21.00
2023-08-16T22:58:33.818Z,21.10
2023-08-16T23:01:01.042Z,21.00
2023-08-16T23:20:42.196Z,21.10
2023-08-16T23:23:10.804Z,20.90
2023-08-16T23:25:38.129Z,20.90
2023-08-16T23:28:05.465Z,20.90
2023-08-16T23:30:32.702Z,20.90
2023-08-16T23:32:59.646Z,20.90
2023-08-16T23:35:26.620Z,20.80
2023-08-16T23:37:53.761Z,20.70
2023-08-16T23:40:22.487Z,20.80
2023-08-16T23:42:50.905Z,20.70
2023-08-16T23:45:18.243Z,20.70
2023-08-16T23:47:45.276Z,20.70
2023-08-16T23:50:12.529Z,20.70
2023-08-16T23:52:39.550Z,20.60
2023-08-16T23:55:08.070Z,20.60
2023-08-16T23:57:36.473Z,20.70
